Keene, NY

9:25 PM EDT on August 27, 2015 (GMT -0400)
Sentinel Range Foothills | | Change Station
CLOSE
Current Station
Personal Weather Station
Location: Keene, NY
Elevation: 1165 ft
Nearby Weather Stations

Elev 1165 ft 44.27 °N, 73.81 °W | Updated 6 seconds ago

Mostly Cloudy
Mostly Cloudy
59.7 °F
Feels Like 59.7 °F
N
0.9
Wind Variable Wind from SE
Gusts 2.0 mph

Today
High -- | Low -- °F
--% Chance of Precip.
Yesterday
High -- | Low -- °F
Precip. -- in
6:11 AM 7:40 PM
Waxing Gibbous, 96% visible
Pressure 30.12 in
Visibility 10.0 miles
Clouds Mostly Cloudy 3600 ft
Overcast 6000 ft
Dew Point 56 °F
Humidity 88%
Rainfall 0.01 in
Snow Depth Not available.
UV 0 out of 12
Pollen 8.50 out of 12
Air Quality Not available.
Flu Activity Not available.
METAR KSLK 280051Z AUTO 24004KT 10SM BKN036 OVC060 15/12 A3012 RMK AO2 SLP200 T01500122
Pressure 30.12 in
Visibility 10.0 miles
Clouds Mostly Cloudy 3600 ft
Overcast 6000 ft
Dew Point 56 °F
Humidity 88%
Rainfall 0.01 in
Snow Depth Not available.
UV 0 out of 12
Pollen 8.50 out of 12
Air Quality Not available.
Flu Activity Not available.
METAR KSLK 280051Z AUTO 24004KT 10SM BKN036 OVC060 15/12 A3012 RMK AO2 SLP200 T01500122

10-Day Weather Forecast

×

Almanac

Astronomy

Aug. 27, 2015 Rise Set
Actual Time
Civil Twilight
Nautical Twilight
Astronomical Twilight
Moon
Length of Visible Light
Length of Day
Tomorrow will be .
, % of the Moon is Illuminated

Today's Extremes

State Highs State Lows

Community

WunderPhotos

Upload Photos

1,850,297 photos uploaded!

WunderBlogs® & News

Nearby

Air Quality

  Air Quality AQ Index Pollutant
Not available.

Snow Depth

Station Depth Elevation

Earthquake Activity

City Distance Mag. Time & Date
Minimum magnitude displayed is 2.5.

Coastal Water Temperatures

Place Temperature

Stations

Nearby Weather Stations

Station Location Temp. Windchill Dew Point Humidity Wind Precip. Elev Updated Type